sensor_id;sensor_type;location;lat;lon;timestamp;temperature;humidity
14378;DHT22;7272;53.668;9.578;2023-12-20T00:02:23;7.20;99.90
14378;DHT22;7272;53.668;9.578;2023-12-20T00:05:24;7.10;99.90
14378;DHT22;7272;53.668;9.578;2023-12-20T00:08:26;7.20;99.90
14378;DHT22;7272;53.668;9.578;2023-12-20T00:11:27;7.20;99.90
14378;DHT22;7272;53.668;9.578;2023-12-20T00:14:28;7.30;99.90
14378;DHT22;7272;53.668;9.578;2023-12-20T00:17:30;7.30;99.90
14378;DHT22;7272;53.668;9.578;2023-12-20T00:20:31;7.30;99.90
14378;DHT22;7272;53.668;9.578;2023-12-20T00:23:33;7.20;99.90
14378;DHT22;7272;53.668;9.578;2023-12-20T00:26:34;7.30;99.90
14378;DHT22;7272;53.668;9.578;2023-12-20T00:29:35;7.30;99.90
14378;DHT22;7272;53.668;9.578;2023-12-20T00:32:36;7.30;99.90
14378;DHT22;7272;53.668;9.578;2023-12-20T00:35:38;7.30;99.90
14378;DHT22;7272;53.668;9.578;2023-12-20T00:38:39;7.30;99.90
14378;DHT22;7272;53.668;9.578;2023-12-20T00:41:40;7.30;99.90
14378;DHT22;7272;53.668;9.578;2023-12-20T00:44:42;7.30;99.90
14378;DHT22;7272;53.668;9.578;2023-12-20T00:47:43;7.20;99.90
14378;DHT22;7272;53.668;9.578;2023-12-20T00:50:44;7.20;99.90
14378;DHT22;7272;53.668;9.578;2023-12-20T00:53:46;7.20;99.90
14378;DHT22;7272;53.668;9.578;2023-12-20T00:56:49;7.20;99.90
14378;DHT22;7272;53.668;9.578;2023-12-20T00:59:51;7.20;99.90
14378;DHT22;7272;53.668;9.578;2023-12-20T01:02:52;7.20;99.90
14378;DHT22;7272;53.668;9.578;2023-12-20T01:05:53;7.10;99.90
14378;DHT22;7272;53.668;9.578;2023-12-20T01:08:55;7.10;99.90
14378;DHT22;7272;53.668;9.578;2023-12-20T01:11:56;7.10;99.90
14378;DHT22;7272;53.668;9.578;2023-12-20T01:14:57;7.10;99.90
14378;DHT22;7272;53.668;9.578;2023-12-20T01:17:59;7.10;99.90
14378;DHT22;7272;53.668;9.578;2023-12-20T01:21:01;7.00;99.90
14378;DHT22;7272;53.668;9.578;2023-12-20T01:24:04;7.00;99.90
14378;DHT22;7272;53.668;9.578;2023-12-20T01:27:05;7.00;99.90
14378;DHT22;7272;53.668;9.578;2023-12-20T01:30:07;7.00;99.90
14378;DHT22;7272;53.668;9.578;2023-12-20T01:33:09;7.00;99.90
14378;DHT22;7272;53.668;9.578;2023-12-20T01:36:10;7.00;99.90
14378;DHT22;7272;53.668;9.578;2023-12-20T01:39:12;7.00;99.90
14378;DHT22;7272;53.668;9.578;2023-12-20T01:42:14;7.00;99.90
14378;DHT22;7272;53.668;9.578;2023-12-20T01:45:15;7.00;99.90
14378;DHT22;7272;53.668;9.578;2023-12-20T01:48:16;7.00;99.90
14378;DHT22;7272;53.668;9.578;2023-12-20T01:51:18;7.00;99.90
14378;DHT22;7272;53.668;9.578;2023-12-20T01:54:20;7.00;99.90
14378;DHT22;7272;53.668;9.578;2023-12-20T01:57:22;7.00;99.90
14378;DHT22;7272;53.668;9.578;2023-12-20T02:00:25;7.00;99.90
14378;DHT22;7272;53.668;9.578;2023-12-20T02:03:28;7.00;99.90
14378;DHT22;7272;53.668;9.578;2023-12-20T02:06:30;7.00;99.90
14378;DHT22;7272;53.668;9.578;2023-12-20T02:09:32;7.00;99.90
14378;DHT22;7272;53.668;9.578;2023-12-20T02:12:34;7.10;99.90
14378;DHT22;7272;53.668;9.578;2023-12-20T02:15:35;7.10;99.90
14378;DHT22;7272;53.668;9.578;2023-12-20T02:18:37;7.10;99.90
14378;DHT22;7272;53.668;9.578;2023-12-20T02:21:39;7.20;99.90
14378;DHT22;7272;53.668;9.578;2023-12-20T02:24:40;7.20;99.90
14378;DHT22;7272;53.668;9.578;2023-12-20T02:27:42;7.20;99.90
14378;DHT22;7272;53.668;9.578;2023-12-20T02:30:43;7.20;99.90
14378;DHT22;7272;53.668;9.578;2023-12-20T02:33:44;7.20;99.90
14378;DHT22;7272;53.668;9.578;2023-12-20T02:36:47;7.20;99.90
14378;DHT22;7272;53.668;9.578;2023-12-20T02:39:48;7.30;99.90
14378;DHT22;7272;53.668;9.578;2023-12-20T02:42:49;7.30;99.90
14378;DHT22;7272;53.668;9.578;2023-12-20T02:45:50;7.20;99.90
14378;DHT22;7272;53.668;9.578;2023-12-20T02:48:51;7.20;99.90
14378;DHT22;7272;53.668;9.578;2023-12-20T02:51:53;7.20;99.90
14378;DHT22;7272;53.668;9.578;2023-12-20T02:54:54;7.30;99.90
14378;DHT22;7272;53.668;9.578;2023-12-20T02:57:55;7.20;99.90
14378;DHT22;7272;53.668;9.578;2023-12-20T03:00:57;7.20;99.90
14378;DHT22;7272;53.668;9.578;2023-12-20T03:03:58;7.20;99.90
14378;DHT22;7272;53.668;9.578;2023-12-20T03:07:00;7.30;99.90
14378;DHT22;7272;53.668;9.578;2023-12-20T03:10:01;7.30;99.90
14378;DHT22;7272;53.668;9.578;2023-12-20T03:13:02;7.30;99.90
14378;DHT22;7272;53.668;9.578;2023-12-20T03:16:08;7.20;99.90
14378;DHT22;7272;53.668;9.578;2023-12-20T03:19:09;7.20;99.90
14378;DHT22;7272;53.668;9.578;2023-12-20T03:22:11;7.20;99.90
14378;DHT22;7272;53.668;9.578;2023-12-20T03:25:12;7.20;99.90
14378;DHT22;7272;53.668;9.578;2023-12-20T03:28:14;7.20;99.90
14378;DHT22;7272;53.668;9.578;2023-12-20T03:31:16;7.20;99.90
14378;DHT22;7272;53.668;9.578;2023-12-20T03:34:17;7.20;99.90
14378;DHT22;7272;53.668;9.578;2023-12-20T03:37:19;7.20;99.90
14378;DHT22;7272;53.668;9.578;2023-12-20T03:40:20;7.20;99.90
14378;DHT22;7272;53.668;9.578;2023-12-20T03:43:22;7.30;99.90
14378;DHT22;7272;53.668;9.578;2023-12-20T03:46:24;7.20;99.90
14378;DHT22;7272;53.668;9.578;2023-12-20T03:49:25;7.20;99.90
14378;DHT22;7272;53.668;9.578;2023-12-20T03:52:27;7.30;99.90
14378;DHT22;7272;53.668;9.578;2023-12-20T03:55:28;7.30;99.90
14378;DHT22;7272;53.668;9.578;2023-12-20T03:58:29;7.30;99.90
14378;DHT22;7272;53.668;9.578;2023-12-20T04:01:30;7.30;99.90
14378;DHT22;7272;53.668;9.578;2023-12-20T04:04:31;7.30;99.90
14378;DHT22;7272;53.668;9.578;2023-12-20T04:07:33;7.40;99.90
14378;DHT22;7272;53.668;9.578;2023-12-20T04:10:35;7.40;99.90
14378;DHT22;7272;53.668;9.578;2023-12-20T04:13:36;7.40;99.90
14378;DHT22;7272;53.668;9.578;2023-12-20T04:16:37;7.30;99.90
14378;DHT22;7272;53.668;9.578;2023-12-20T04:19:39;7.30;99.90
14378;DHT22;7272;53.668;9.578;2023-12-20T04:22:41;7.30;99.90
14378;DHT22;7272;53.668;9.578;2023-12-20T04:25:43;7.30;99.90
14378;DHT22;7272;53.668;9.578;2023-12-20T04:28:44;7.30;99.90
14378;DHT22;7272;53.668;9.578;2023-12-20T04:31:45;7.30;99.90
14378;DHT22;7272;53.668;9.578;2023-12-20T04:34:46;7.30;99.90
14378;DHT22;7272;53.668;9.578;2023-12-20T04:37:48;7.40;99.90
14378;DHT22;7272;53.668;9.578;2023-12-20T04:40:50;7.30;99.90
14378;DHT22;7272;53.668;9.578;2023-12-20T04:43:51;7.30;99.90
14378;DHT22;7272;53.668;9.578;2023-12-20T04:46:52;7.30;99.90
14378;DHT22;7272;53.668;9.578;2023-12-20T04:49:54;7.30;99.90
14378;DHT22;7272;53.668;9.578;2023-12-20T04:52:55;7.40;99.90
14378;DHT22;7272;53.668;9.578;2023-12-20T04:55:57;7.40;99.90
14378;DHT22;7272;53.668;9.578;2023-12-20T04:58:58;7.40;99.90
14378;DHT22;7272;53.668;9.578;2023-12-20T05:01:59;7.40;99.90
14378;DHT22;7272;53.668;9.578;2023-12-20T05:05:01;7.40;99.90
14378;DHT22;7272;53.668;9.578;2023-12-20T05:08:03;7.40;99.90
14378;DHT22;7272;53.668;9.578;2023-12-20T05:11:04;7.40;99.90
14378;DHT22;7272;53.668;9.578;2023-12-20T05:14:06;7.40;99.90
14378;DHT22;7272;53.668;9.578;2023-12-20T05:17:08;7.40;99.90
14378;DHT22;7272;53.668;9.578;2023-12-20T05:20:09;7.50;99.90
14378;DHT22;7272;53.668;9.578;2023-12-20T05:23:11;7.50;99.90
14378;DHT22;7272;53.668;9.578;2023-12-20T05:26:13;7.50;99.90
14378;DHT22;7272;53.668;9.578;2023-12-20T05:29:15;7.40;99.90
14378;DHT22;7272;53.668;9.578;2023-12-20T05:32:16;7.40;99.90
14378;DHT22;7272;53.668;9.578;2023-12-20T05:35:18;7.40;99.90
14378;DHT22;7272;53.668;9.578;2023-12-20T05:38:20;7.40;99.90
14378;DHT22;7272;53.668;9.578;2023-12-20T05:41:21;7.40;99.90
14378;DHT22;7272;53.668;9.578;2023-12-20T05:44:23;7.40;99.90
14378;DHT22;7272;53.668;9.578;2023-12-20T05:47:24;7.40;99.90
14378;DHT22;7272;53.668;9.578;2023-12-20T05:50:25;7.40;99.90
14378;DHT22;7272;53.668;9.578;2023-12-20T05:53:27;7.40;99.90
14378;DHT22;7272;53.668;9.578;2023-12-20T05:56:28;7.40;99.90
14378;DHT22;7272;53.668;9.578;2023-12-20T05:59:29;7.40;99.90
14378;DHT22;7272;53.668;9.578;2023-12-20T06:02:30;7.40;99.90
14378;DHT22;7272;53.668;9.578;2023-12-20T06:05:32;7.40;99.90
14378;DHT22;7272;53.668;9.578;2023-12-20T06:08:33;7.50;99.90
14378;DHT22;7272;53.668;9.578;2023-12-20T06:11:35;7.50;99.90
14378;DHT22;7272;53.668;9.578;2023-12-20T06:14:36;7.50;99.90
14378;DHT22;7272;53.668;9.578;2023-12-20T06:17:37;7.50;99.90
14378;DHT22;7272;53.668;9.578;2023-12-20T06:20:38;7.50;99.90
14378;DHT22;7272;53.668;9.578;2023-12-20T06:23:40;7.50;99.90
14378;DHT22;7272;53.668;9.578;2023-12-20T06:26:41;7.50;99.90
14378;DHT22;7272;53.668;9.578;2023-12-20T06:29:43;7.50;99.90
14378;DHT22;7272;53.668;9.578;2023-12-20T06:32:45;7.60;99.90
14378;DHT22;7272;53.668;9.578;2023-12-20T06:35:47;7.50;99.90
14378;DHT22;7272;53.668;9.578;2023-12-20T06:38:49;7.60;99.90
14378;DHT22;7272;53.668;9.578;2023-12-20T06:41:50;7.60;99.90
14378;DHT22;7272;53.668;9.578;2023-12-20T06:44:52;7.60;99.90
14378;DHT22;7272;53.668;9.578;2023-12-20T06:47:53;7.60;99.90
14378;DHT22;7272;53.668;9.578;2023-12-20T06:50:55;7.60;99.90
14378;DHT22;7272;53.668;9.578;2023-12-20T06:53:57;7.60;99.90
14378;DHT22;7272;53.668;9.578;2023-12-20T06:56:58;7.60;99.90
14378;DHT22;7272;53.668;9.578;2023-12-20T06:59:59;7.60;99.90
14378;DHT22;7272;53.668;9.578;2023-12-20T07:03:01;7.60;99.90
14378;DHT22;7272;53.668;9.578;2023-12-20T07:06:02;7.70;99.90
14378;DHT22;7272;53.668;9.578;2023-12-20T07:09:04;7.70;99.90
14378;DHT22;7272;53.668;9.578;2023-12-20T07:12:06;7.70;99.90
14378;DHT22;7272;53.668;9.578;2023-12-20T07:15:08;7.70;99.90
14378;DHT22;7272;53.668;9.578;2023-12-20T07:18:09;7.70;99.90
14378;DHT22;7272;53.668;9.578;2023-12-20T07:21:10;7.70;99.90
14378;DHT22;7272;53.668;9.578;2023-12-20T07:24:12;7.70;99.90
14378;DHT22;7272;53.668;9.578;2023-12-20T07:27:14;7.70;99.90
14378;DHT22;7272;53.668;9.578;2023-12-20T07:30:15;7.80;99.90
14378;DHT22;7272;53.668;9.578;2023-12-20T07:33:17;7.70;99.90
14378;DHT22;7272;53.668;9.578;2023-12-20T07:36:20;7.70;99.90
14378;DHT22;7272;53.668;9.578;2023-12-20T07:39:23;7.70;99.90
14378;DHT22;7272;53.668;9.578;2023-12-20T07:42:24;7.70;99.90
14378;DHT22;7272;53.668;9.578;2023-12-20T07:45:26;7.80;99.90
14378;DHT22;7272;53.668;9.578;2023-12-20T07:48:27;7.70;99.90
14378;DHT22;7272;53.668;9.578;2023-12-20T07:51:28;7.70;99.90
14378;DHT22;7272;53.668;9.578;2023-12-20T07:54:30;7.70;99.90
14378;DHT22;7272;53.668;9.578;2023-12-20T07:57:31;7.80;99.90
14378;DHT22;7272;53.668;9.578;2023-12-20T08:00:32;7.80;99.90
14378;DHT22;7272;53.668;9.578;2023-12-20T08:03:33;7.80;99.90
14378;DHT22;7272;53.668;9.578;2023-12-20T08:06:35;7.80;99.90
14378;DHT22;7272;53.668;9.578;2023-12-20T08:09:36;7.80;99.90
14378;DHT22;7272;53.668;9.578;2023-12-20T08:12:38;7.80;99.90
14378;DHT22;7272;53.668;9.578;2023-12-20T08:15:40;7.80;99.90
14378;DHT22;7272;53.668;9.578;2023-12-20T08:18:41;7.80;99.90
14378;DHT22;7272;53.668;9.578;2023-12-20T08:21:42;7.90;99.90
14378;DHT22;7272;53.668;9.578;2023-12-20T08:24:44;7.90;99.90
14378;DHT22;7272;53.668;9.578;2023-12-20T08:27:45;8.00;99.90
14378;DHT22;7272;53.668;9.578;2023-12-20T08:30:46;8.10;99.90
14378;DHT22;7272;53.668;9.578;2023-12-20T08:33:48;8.10;99.90
14378;DHT22;7272;53.668;9.578;2023-12-20T08:36:50;8.10;99.90
14378;DHT22;7272;53.668;9.578;2023-12-20T08:39:52;8.10;99.90
14378;DHT22;7272;53.668;9.578;2023-12-20T08:42:53;8.00;99.90
14378;DHT22;7272;53.668;9.578;2023-12-20T08:45:55;7.90;99.90
14378;DHT22;7272;53.668;9.578;2023-12-20T08:48:57;8.00;99.90
14378;DHT22;7272;53.668;9.578;2023-12-20T08:51:58;7.90;99.90
14378;DHT22;7272;53.668;9.578;2023-12-20T08:55:00;7.90;99.90
14378;DHT22;7272;53.668;9.578;2023-12-20T08:58:01;7.90;99.90
14378;DHT22;7272;53.668;9.578;2023-12-20T09:01:02;7.80;99.90
14378;DHT22;7272;53.668;9.578;2023-12-20T09:04:04;7.80;99.90
14378;DHT22;7272;53.668;9.578;2023-12-20T09:07:06;7.60;99.90
14378;DHT22;7272;53.668;9.578;2023-12-20T09:10:09;7.40;99.90
14378;DHT22;7272;53.668;9.578;2023-12-20T09:13:10;7.10;99.90
14378;DHT22;7272;53.668;9.578;2023-12-20T09:16:11;7.00;99.90
14378;DHT22;7272;53.668;9.578;2023-12-20T09:19:13;6.90;99.90
14378;DHT22;7272;53.668;9.578;2023-12-20T09:22:15;6.80;99.90
14378;DHT22;7272;53.668;9.578;2023-12-20T09:25:16;6.70;99.90
14378;DHT22;7272;53.668;9.578;2023-12-20T09:28:18;6.70;99.90
14378;DHT22;7272;53.668;9.578;2023-12-20T09:31:19;6.60;99.90
14378;DHT22;7272;53.668;9.578;2023-12-20T09:34:20;6.70;99.90
14378;DHT22;7272;53.668;9.578;2023-12-20T09:37:22;6.70;99.90
14378;DHT22;7272;53.668;9.578;2023-12-20T09:40:26;6.70;99.90
14378;DHT22;7272;53.668;9.578;2023-12-20T09:43:27;6.60;99.90
14378;DHT22;7272;53.668;9.578;2023-12-20T09:46:32;6.60;99.90
14378;DHT22;7272;53.668;9.578;2023-12-20T09:49:36;6.50;99.90
14378;DHT22;7272;53.668;9.578;2023-12-20T09:52:39;6.50;99.90
14378;DHT22;7272;53.668;9.578;2023-12-20T09:55:42;6.50;99.90
14378;DHT22;7272;53.668;9.578;2023-12-20T09:58:43;6.50;99.90
14378;DHT22;7272;53.668;9.578;2023-12-20T10:01:44;6.60;99.90
14378;DHT22;7272;53.668;9.578;2023-12-20T10:04:47;6.60;99.90
14378;DHT22;7272;53.668;9.578;2023-12-20T10:07:48;6.60;99.90
14378;DHT22;7272;53.668;9.578;2023-12-20T10:10:50;6.60;99.90
14378;DHT22;7272;53.668;9.578;2023-12-20T10:13:51;6.70;99.90
14378;DHT22;7272;53.668;9.578;2023-12-20T10:16:53;6.70;99.90
14378;DHT22;7272;53.668;9.578;2023-12-20T10:19:56;6.70;99.90
14378;DHT22;7272;53.668;9.578;2023-12-20T10:22:58;6.70;99.90
14378;DHT22;7272;53.668;9.578;2023-12-20T10:26:00;6.70;99.90
14378;DHT22;7272;53.668;9.578;2023-12-20T10:29:01;6.80;99.90
14378;DHT22;7272;53.668;9.578;2023-12-20T10:32:22;6.90;99.90
14378;DHT22;7272;53.668;9.578;2023-12-20T10:35:24;6.90;99.90
14378;DHT22;7272;53.668;9.578;2023-12-20T10:38:25;6.90;99.90
14378;DHT22;7272;53.668;9.578;2023-12-20T10:41:29;6.90;99.90
14378;DHT22;7272;53.668;9.578;2023-12-20T10:44:30;6.90;99.90
14378;DHT22;7272;53.668;9.578;2023-12-20T10:47:32;6.90;99.90
14378;DHT22;7272;53.668;9.578;2023-12-20T10:50:36;7.00;99.90
14378;DHT22;7272;53.668;9.578;2023-12-20T10:53:39;7.00;99.90
14378;DHT22;7272;53.668;9.578;2023-12-20T10:56:42;7.00;99.90
14378;DHT22;7272;53.668;9.578;2023-12-20T10:59:45;7.10;99.90
14378;DHT22;7272;53.668;9.578;2023-12-20T11:02:49;7.00;99.90
14378;DHT22;7272;53.668;9.578;2023-12-20T11:05:57;7.00;99.90
14378;DHT22;7272;53.668;9.578;2023-12-20T11:09:07;7.10;99.90
14378;DHT22;7272;53.668;9.578;2023-12-20T11:12:15;7.20;99.90
14378;DHT22;7272;53.668;9.578;2023-12-20T11:15:18;7.20;99.90
14378;DHT22;7272;53.668;9.578;2023-12-20T11:18:20;7.30;99.90
14378;DHT22;7272;53.668;9.578;2023-12-20T11:21:29;7.30;99.90
14378;DHT22;7272;53.668;9.578;2023-12-20T11:24:31;7.30;99.90
14378;DHT22;7272;53.668;9.578;2023-12-20T11:27:34;7.20;99.90
14378;DHT22;7272;53.668;9.578;2023-12-20T11:30:50;7.10;99.90
14378;DHT22;7272;53.668;9.578;2023-12-20T11:34:15;7.10;99.90
14378;DHT22;7272;53.668;9.578;2023-12-20T11:37:19;7.20;99.90
14378;DHT22;7272;53.668;9.578;2023-12-20T11:40:23;7.20;99.90
14378;DHT22;7272;53.668;9.578;2023-12-20T11:43:35;7.30;99.90
14378;DHT22;7272;53.668;9.578;2023-12-20T11:46:37;7.20;99.90
14378;DHT22;7272;53.668;9.578;2023-12-20T11:49:38;7.20;99.90
14378;DHT22;7272;53.668;9.578;2023-12-20T11:52:39;7.20;99.90
14378;DHT22;7272;53.668;9.578;2023-12-20T11:55:40;7.20;99.90
14378;DHT22;7272;53.668;9.578;2023-12-20T11:58:42;7.30;99.90
14378;DHT22;7272;53.668;9.578;2023-12-20T12:01:48;7.50;99.90
14378;DHT22;7272;53.668;9.578;2023-12-20T12:04:50;7.50;99.90
14378;DHT22;7272;53.668;9.578;2023-12-20T12:07:51;7.60;99.90
14378;DHT22;7272;53.668;9.578;2023-12-20T12:10:52;7.70;99.90
14378;DHT22;7272;53.668;9.578;2023-12-20T12:13:54;7.80;99.90
14378;DHT22;7272;53.668;9.578;2023-12-20T12:16:56;7.80;99.90
14378;DHT22;7272;53.668;9.578;2023-12-20T12:20:02;7.70;99.90
14378;DHT22;7272;53.668;9.578;2023-12-20T12:23:05;7.70;99.90
14378;DHT22;7272;53.668;9.578;2023-12-20T12:26:07;7.60;99.90
14378;DHT22;7272;53.668;9.578;2023-12-20T12:29:10;7.60;99.90
14378;DHT22;7272;53.668;9.578;2023-12-20T12:32:11;7.60;99.90
14378;DHT22;7272;53.668;9.578;2023-12-20T12:35:13;7.70;99.90
14378;DHT22;7272;53.668;9.578;2023-12-20T12:38:14;7.70;99.90
14378;DHT22;7272;53.668;9.578;2023-12-20T12:41:16;7.60;99.90
14378;DHT22;7272;53.668;9.578;2023-12-20T12:44:18;7.60;99.90
14378;DHT22;7272;53.668;9.578;2023-12-20T12:47:19;7.60;99.90
14378;DHT22;7272;53.668;9.578;2023-12-20T12:50:20;7.60;99.90
14378;DHT22;7272;53.668;9.578;2023-12-20T12:53:22;7.50;99.90
14378;DHT22;7272;53.668;9.578;2023-12-20T12:56:23;7.50;99.90
14378;DHT22;7272;53.668;9.578;2023-12-20T12:59:25;7.40;99.90
14378;DHT22;7272;53.668;9.578;2023-12-20T13:02:27;7.40;99.90
14378;DHT22;7272;53.668;9.578;2023-12-20T13:05:28;7.40;99.90
14378;DHT22;7272;53.668;9.578;2023-12-20T13:08:30;7.50;99.90
14378;DHT22;7272;53.668;9.578;2023-12-20T13:11:31;7.50;99.90
14378;DHT22;7272;53.668;9.578;2023-12-20T13:14:34;7.50;99.90
14378;DHT22;7272;53.668;9.578;2023-12-20T13:17:37;7.50;99.90
14378;DHT22;7272;53.668;9.578;2023-12-20T13:20:38;7.60;99.90
14378;DHT22;7272;53.668;9.578;2023-12-20T13:23:40;7.60;99.90
14378;DHT22;7272;53.668;9.578;2023-12-20T13:26:42;7.60;99.90
14378;DHT22;7272;53.668;9.578;2023-12-20T13:29:43;7.60;99.90
14378;DHT22;7272;53.668;9.578;2023-12-20T13:32:45;7.60;99.90
14378;DHT22;7272;53.668;9.578;2023-12-20T13:35:46;7.60;99.90
14378;DHT22;7272;53.668;9.578;2023-12-20T13:38:47;7.50;99.90
14378;DHT22;7272;53.668;9.578;2023-12-20T13:41:48;7.50;99.90
14378;DHT22;7272;53.668;9.578;2023-12-20T13:44:50;7.50;99.90
14378;DHT22;7272;53.668;9.578;2023-12-20T13:47:51;7.50;99.90
14378;DHT22;7272;53.668;9.578;2023-12-20T13:50:53;7.50;99.90
14378;DHT22;7272;53.668;9.578;2023-12-20T13:53:55;7.50;99.90
14378;DHT22;7272;53.668;9.578;2023-12-20T13:56:56;7.50;99.90
14378;DHT22;7272;53.668;9.578;2023-12-20T13:59:59;7.50;99.90
14378;DHT22;7272;53.668;9.578;2023-12-20T14:03:00;7.60;99.90
14378;DHT22;7272;53.668;9.578;2023-12-20T14:06:02;7.60;99.90
14378;DHT22;7272;53.668;9.578;2023-12-20T14:09:04;7.60;99.90
14378;DHT22;7272;53.668;9.578;2023-12-20T14:12:06;7.60;99.90
14378;DHT22;7272;53.668;9.578;2023-12-20T14:15:08;7.60;99.90
14378;DHT22;7272;53.668;9.578;2023-12-20T14:18:11;7.50;99.90
14378;DHT22;7272;53.668;9.578;2023-12-20T14:21:15;7.50;99.90
14378;DHT22;7272;53.668;9.578;2023-12-20T14:24:16;7.50;99.90
14378;DHT22;7272;53.668;9.578;2023-12-20T14:27:17;7.50;99.90
14378;DHT22;7272;53.668;9.578;2023-12-20T14:30:22;7.50;99.90
14378;DHT22;7272;53.668;9.578;2023-12-20T14:33:23;7.40;99.90
14378;DHT22;7272;53.668;9.578;2023-12-20T14:36:24;7.30;99.90
14378;DHT22;7272;53.668;9.578;2023-12-20T14:39:26;7.30;99.90
14378;DHT22;7272;53.668;9.578;2023-12-20T14:42:27;7.30;99.90
14378;DHT22;7272;53.668;9.578;2023-12-20T14:45:29;7.30;99.90
14378;DHT22;7272;53.668;9.578;2023-12-20T14:48:30;7.20;99.90
14378;DHT22;7272;53.668;9.578;2023-12-20T14:51:31;7.30;99.90
14378;DHT22;7272;53.668;9.578;2023-12-20T14:54:32;7.20;99.90
14378;DHT22;7272;53.668;9.578;2023-12-20T14:57:33;7.20;99.90
14378;DHT22;7272;53.668;9.578;2023-12-20T15:00:35;7.20;99.90
14378;DHT22;7272;53.668;9.578;2023-12-20T15:03:36;7.30;99.90
14378;DHT22;7272;53.668;9.578;2023-12-20T15:06:38;7.30;99.90
14378;DHT22;7272;53.668;9.578;2023-12-20T15:09:40;7.20;99.90
14378;DHT22;7272;53.668;9.578;2023-12-20T15:12:46;7.20;99.90
14378;DHT22;7272;53.668;9.578;2023-12-20T15:15:48;7.20;99.90
14378;DHT22;7272;53.668;9.578;2023-12-20T15:18:49;7.20;99.90
14378;DHT22;7272;53.668;9.578;2023-12-20T15:21:51;7.20;99.90
14378;DHT22;7272;53.668;9.578;2023-12-20T15:24:52;7.20;99.90
14378;DHT22;7272;53.668;9.578;2023-12-20T15:27:55;7.20;99.90
14378;DHT22;7272;53.668;9.578;2023-12-20T15:30:57;7.20;99.90
14378;DHT22;7272;53.668;9.578;2023-12-20T15:33:59;7.10;99.90
14378;DHT22;7272;53.668;9.578;2023-12-20T15:37:00;7.00;99.90
14378;DHT22;7272;53.668;9.578;2023-12-20T15:40:01;7.00;99.90
14378;DHT22;7272;53.668;9.578;2023-12-20T15:43:03;6.90;99.90
14378;DHT22;7272;53.668;9.578;2023-12-20T15:46:05;6.90;99.90
14378;DHT22;7272;53.668;9.578;2023-12-20T15:49:06;6.90;99.90
14378;DHT22;7272;53.668;9.578;2023-12-20T15:52:07;6.90;99.90
14378;DHT22;7272;53.668;9.578;2023-12-20T15:55:09;6.90;99.90
14378;DHT22;7272;53.668;9.578;2023-12-20T15:58:10;6.90;99.90
14378;DHT22;7272;53.668;9.578;2023-12-20T16:01:11;6.90;99.90
14378;DHT22;7272;53.668;9.578;2023-12-20T16:04:13;6.90;99.90
14378;DHT22;7272;53.668;9.578;2023-12-20T16:07:14;7.00;99.90
14378;DHT22;7272;53.668;9.578;2023-12-20T16:10:15;7.10;99.90
14378;DHT22;7272;53.668;9.578;2023-12-20T16:13:16;7.20;99.90
14378;DHT22;7272;53.668;9.578;2023-12-20T16:16:18;7.20;99.90
14378;DHT22;7272;53.668;9.578;2023-12-20T16:19:19;7.20;99.90
14378;DHT22;7272;53.668;9.578;2023-12-20T16:22:20;6.70;99.90
14378;DHT22;7272;53.668;9.578;2023-12-20T16:25:22;6.10;99.90
14378;DHT22;7272;53.668;9.578;2023-12-20T16:28:23;5.70;99.90
14378;DHT22;7272;53.668;9.578;2023-12-20T16:31:25;5.60;99.90
14378;DHT22;7272;53.668;9.578;2023-12-20T16:34:27;5.70;99.90
14378;DHT22;7272;53.668;9.578;2023-12-20T16:37:28;6.00;99.90
14378;DHT22;7272;53.668;9.578;2023-12-20T16:40:29;6.10;99.90
14378;DHT22;7272;53.668;9.578;2023-12-20T16:43:30;6.20;99.90
14378;DHT22;7272;53.668;9.578;2023-12-20T16:46:32;6.30;99.90
14378;DHT22;7272;53.668;9.578;2023-12-20T16:49:33;6.50;99.90
14378;DHT22;7272;53.668;9.578;2023-12-20T16:52:35;6.50;99.90
14378;DHT22;7272;53.668;9.578;2023-12-20T16:55:36;6.60;99.90
14378;DHT22;7272;53.668;9.578;2023-12-20T16:58:38;6.70;99.90
14378;DHT22;7272;53.668;9.578;2023-12-20T17:01:39;6.60;99.90
14378;DHT22;7272;53.668;9.578;2023-12-20T17:04:43;6.60;99.90
14378;DHT22;7272;53.668;9.578;2023-12-20T17:07:45;6.60;99.90
14378;DHT22;7272;53.668;9.578;2023-12-20T17:10:46;6.70;99.90
14378;DHT22;7272;53.668;9.578;2023-12-20T17:13:48;6.70;99.90
14378;DHT22;7272;53.668;9.578;2023-12-20T17:16:49;6.70;99.90
14378;DHT22;7272;53.668;9.578;2023-12-20T17:19:51;6.70;99.90
14378;DHT22;7272;53.668;9.578;2023-12-20T17:22:52;6.70;99.90
14378;DHT22;7272;53.668;9.578;2023-12-20T17:25:54;6.80;99.90
14378;DHT22;7272;53.668;9.578;2023-12-20T17:28:55;6.80;99.90
14378;DHT22;7272;53.668;9.578;2023-12-20T17:31:57;6.80;99.90
14378;DHT22;7272;53.668;9.578;2023-12-20T17:34:58;6.80;99.90
14378;DHT22;7272;53.668;9.578;2023-12-20T17:37:59;6.80;99.90
14378;DHT22;7272;53.668;9.578;2023-12-20T17:41:00;6.90;99.90
14378;DHT22;7272;53.668;9.578;2023-12-20T17:44:01;6.90;99.90
14378;DHT22;7272;53.668;9.578;2023-12-20T17:47:04;6.80;99.90
14378;DHT22;7272;53.668;9.578;2023-12-20T17:50:06;6.90;99.90
14378;DHT22;7272;53.668;9.578;2023-12-20T17:53:07;6.90;99.90
14378;DHT22;7272;53.668;9.578;2023-12-20T17:56:08;6.90;99.90
14378;DHT22;7272;53.668;9.578;2023-12-20T17:59:09;7.00;99.90
14378;DHT22;7272;53.668;9.578;2023-12-20T18:02:11;7.00;99.90
14378;DHT22;7272;53.668;9.578;2023-12-20T18:05:12;7.00;99.90
14378;DHT22;7272;53.668;9.578;2023-12-20T18:08:14;7.00;99.90
14378;DHT22;7272;53.668;9.578;2023-12-20T18:11:15;7.00;99.90
14378;DHT22;7272;53.668;9.578;2023-12-20T18:14:17;7.00;99.90
14378;DHT22;7272;53.668;9.578;2023-12-20T18:17:19;7.00;99.90
14378;DHT22;7272;53.668;9.578;2023-12-20T18:20:20;7.10;99.90
14378;DHT22;7272;53.668;9.578;2023-12-20T18:23:21;7.00;99.90
14378;DHT22;7272;53.668;9.578;2023-12-20T18:26:22;7.10;99.90
14378;DHT22;7272;53.668;9.578;2023-12-20T18:29:23;7.10;99.90
14378;DHT22;7272;53.668;9.578;2023-12-20T18:32:25;7.10;99.90
14378;DHT22;7272;53.668;9.578;2023-12-20T18:35:27;7.10;99.90
14378;DHT22;7272;53.668;9.578;2023-12-20T18:38:28;7.10;99.90
14378;DHT22;7272;53.668;9.578;2023-12-20T18:41:31;7.10;99.90
14378;DHT22;7272;53.668;9.578;2023-12-20T18:44:32;7.20;99.90
14378;DHT22;7272;53.668;9.578;2023-12-20T18:47:33;7.20;99.90
14378;DHT22;7272;53.668;9.578;2023-12-20T18:50:35;7.10;99.90
14378;DHT22;7272;53.668;9.578;2023-12-20T18:53:37;7.20;99.90
14378;DHT22;7272;53.668;9.578;2023-12-20T18:56:38;7.20;99.90
14378;DHT22;7272;53.668;9.578;2023-12-20T18:59:40;7.20;99.90
14378;DHT22;7272;53.668;9.578;2023-12-20T19:02:42;7.20;99.90
14378;DHT22;7272;53.668;9.578;2023-12-20T19:05:43;7.20;99.90
14378;DHT22;7272;53.668;9.578;2023-12-20T19:08:44;7.20;99.90
14378;DHT22;7272;53.668;9.578;2023-12-20T19:11:50;7.20;99.90
14378;DHT22;7272;53.668;9.578;2023-12-20T19:14:51;7.20;99.90
14378;DHT22;7272;53.668;9.578;2023-12-20T19:17:53;7.20;99.90
14378;DHT22;7272;53.668;9.578;2023-12-20T19:20:54;7.20;99.90
14378;DHT22;7272;53.668;9.578;2023-12-20T19:23:55;7.30;99.90
14378;DHT22;7272;53.668;9.578;2023-12-20T19:26:57;7.20;99.90
14378;DHT22;7272;53.668;9.578;2023-12-20T19:29:58;7.20;99.90
14378;DHT22;7272;53.668;9.578;2023-12-20T19:33:01;7.20;99.90
14378;DHT22;7272;53.668;9.578;2023-12-20T19:36:02;7.20;99.90
14378;DHT22;7272;53.668;9.578;2023-12-20T19:39:03;7.20;99.90
14378;DHT22;7272;53.668;9.578;2023-12-20T19:42:05;7.20;99.90
14378;DHT22;7272;53.668;9.578;2023-12-20T19:45:07;7.20;99.90
14378;DHT22;7272;53.668;9.578;2023-12-20T19:48:11;7.20;99.90